• Join FlightAware (Why Join?)
  • Login
  • US Flag GB Flag 
14:20 EDT


 

Airport Tracker/Info


-or-


 

Live Flight TrackerFlight Track Log ✈ DAL268 ✈ 24-Apr-2013 ✈ KATL - KJFK

Flight Track Log - Related Links

Times and Time Zones

All times are in EDT time to prevent confusion due to time zone crossing. See the DAL268 flight status page for this flight to view local times or setup timezone preferences in your user account.

Time Position Orientation Groundspeed Altitude Reporting Facility
EDT Latitude Longitude Course Direction KTS MPH feet Rate Location/Type
19:24 33.6167 -84.5167 64° Northeast 231 266 5,900  Level Atlanta TRACON
19:26 33.8548 -84.1423 73° East  Level Estimated
19:26 33.4925 -84.5869 205° Southwest 242 278 10,000  Level Atlanta Center
19:27 33.9273 -84.0469 101° East  Level Estimated
19:27 33.4489 -84.4919 119° Southeast 227 261 11,000  Level Atlanta Center
19:28 33.8514 -83.9552 135° Southeast  Level FlightAware Approximate
19:28 33.4558 -84.3475 87° East 372 428 14,200  Level Atlanta Center
19:29 33.9246 -83.8605 101° East  Level Estimated
19:29 33.4872 -84.2031 75° East 404 465 17,200  Level Atlanta Center
19:30 33.9977 -83.7655 64° Northeast  Level Estimated
19:30 33.5458 -84.0611 64° Northeast 448 516 19,700  Level Atlanta Center
19:31 33.6022 -83.9142 65° Northeast 474 545 22,200 2,400 Climbing Atlanta Center
19:32 33.6394 -83.7469 75° East 497 572 24,500 1,380 Climbing Atlanta Center
19:33 33.6869 -83.5769 71° East 519 597 25,000 240 Climbing Atlanta Center
19:34 33.7489 -83.4217 64° Northeast 518 596 25,000  Level Atlanta Center
19:35 33.8128 -83.2636 64° Northeast 518 596 25,100 1,200 Climbing Atlanta Center
19:36 33.8722 -83.1106 65° Northeast 508 585 27,500 1,920 Climbing Atlanta Center
19:37 33.9375 -82.9497 64° Northeast 513 590 29,000 720 Climbing Atlanta Center
19:38 33.9947 -82.8086 64° Northeast 518 596 29,000  Level Atlanta Center
19:39 34.0578 -82.6472 65° Northeast 518 596 29,000  Level Atlanta Center
19:40 34.1267 -82.4753 64° Northeast 518 596 29,000  Level Atlanta Center
19:41 34.1831 -82.3314 65° Northeast 518 596 29,000 480 Level Atlanta Center
19:42 34.2456 -82.1742 64° Northeast 518 596 30,000 1,500 Climbing Atlanta Center
19:43 34.3161 -82.0267 60° Northeast 513 590 32,100 1,500 Climbing Atlanta Center
19:44 34.3889 -81.8767 60° Northeast 508 585 33,000 420 Climbing Atlanta Center
19:45 34.4633 -81.7336 58° Northeast 508 585 33,000  Level Atlanta Center
19:46 34.5378 -81.5828 59° Northeast 513 590 33,000 180 Level Atlanta Center
19:47 34.6097 -81.4367 59° Northeast 513 590 33,400 660 Climbing Atlanta Center
19:48 34.6897 -81.2725 59° Northeast 507 583 34,400 1,200 Climbing Atlanta Center
19:49 34.7675 -81.1158 59° Northeast 527 606 35,900 1,320 Climbing Atlanta Center
19:50 34.8350 -80.9792 59° Northeast 527 606 37,100 1,080 Climbing Atlanta Center
19:52 34.9592 -80.7161 60° Northeast 550 633 38,900 660 Climbing Washington Center
19:53 35.0367 -80.5589 59° Northeast 545 627 39,000  Climbing Washington Center
19:54 35.1119 -80.4008 60° Northeast 539 620 39,000  Level Washington Center
19:55 35.1850 -80.2453 60° Northeast 531 611 39,000  Level Washington Center
19:56 35.2600 -80.0842 60° Northeast 526 605 39,000  Level Washington Center
19:57 35.3264 -79.9250 63° Northeast 526 605 39,000  Level Washington Center
19:58 35.3806 -79.7522 69° East 531 611 39,000  Level Washington Center
19:59 35.4344 -79.5764 69° East 536 617 39,000  Level Washington Center
20:00 35.4931 -79.3831 70° East 541 623 39,000  Level Washington Center
20:01 35.5464 -79.2069 70° East 541 623 39,000  Level Washington Center
20:02 35.5906 -79.0531 71° East 541 623 39,000  Level Washington Center
20:03 35.6458 -78.8764 69° East 541 623 39,000  Level Washington Center
20:04 35.7053 -78.6794 70° East 541 623 39,000  Level Washington Center
20:05 35.7556 -78.4997 71° East 541 623 39,000  Level Washington Center
20:06 35.8058 -78.3197 71° East 546 628 39,000  Level Washington Center
20:07 35.8556 -78.1444 71° East 541 623 39,000  Level Washington Center
20:08 35.9053 -77.9642 71° East 541 623 39,000  Level Washington Center
20:09 35.9544 -77.7886 71° East 541 623 39,000  Level Washington Center
20:10 36.0261 -77.6261 61° Northeast 526 605 39,000  Level Washington Center
20:11 36.1142 -77.4817 53° Northeast 526 605 39,000  Level Washington Center
20:12 36.1997 -77.3422 53° Northeast 515 593 39,000  Level Washington Center
20:13 36.2892 -77.1975 52° Northeast 520 598 39,000  Level Washington Center
20:14 36.3889 -77.0678 46° Northeast 520 598 39,000  Level Washington Center
20:15 36.4986 -76.9614 38° Northeast 505 581 39,000  Level Washington Center
20:16 36.6106 -76.8547 37° Northeast 500 575 39,000  Level Washington Center
20:17 36.7242 -76.7503 36° Northeast 500 575 39,000  Level Washington Center
20:18 36.8231 -76.6531 38° Northeast 500 575 39,000  Level Washington Center
20:19 36.9347 -76.5456 38° Northeast 500 575 39,000  Level Washington Center
20:20 37.0458 -76.4428 36° Northeast 500 575 39,000  Level Washington Center
20:21 37.1594 -76.3319 38° Northeast 505 581 39,000  Level Washington Center
20:22 37.2706 -76.2261 37° Northeast 505 581 39,000  Level Washington Center
20:23 37.3878 -76.1250 34° Northeast 505 581 39,000  Level Washington Center
20:24 37.4944 -76.0186 38° Northeast 505 581 39,000  Level Washington Center
20:25 37.6075 -75.9117 37° Northeast 505 581 39,000  Level Washington Center
20:26 37.7183 -75.8019 38° Northeast 505 581 39,000  Level Washington Center
20:27 37.8311 -75.6892 38° Northeast 505 581 39,000  Level Washington Center
20:28 37.9394 -75.5811 38° Northeast 505 581 39,000  Level Washington Center
20:29 38.0522 -75.4758 36° Northeast 505 581 39,000  Level Washington Center
20:30 38.1750 -75.3964 27° Northeast 498 573 39,000  Level Washington Center
20:31 38.2958 -75.3192 27° Northeast 487 560 39,000 -840 Level Washington Center
20:32 38.4186 -75.2367 28° Northeast 482 555 37,400 -1,020 Descending Washington Center
20:33 38.5433 -75.1536 28° Northeast 487 560 37,000 -240 Descending Washington Center
20:34 38.6661 -75.0811 25° Northeast 487 560 37,000 -300 Level Washington Center
20:35 38.7847 -75.0031 27° Northeast 482 555 36,500 -1,080 Descending Washington Center
20:36 38.9031 -74.9300 26° Northeast 482 555 34,900 -1,680 Descending Washington Center
20:37 39.0153 -74.8542 28° Northeast 471 542 33,200 -1,800 Descending Washington Center
20:38 39.1250 -74.7703 31° Northeast 457 526 31,400 -2,520 Descending Washington Center
20:39 39.2161 -74.6728 40° Northeast 440 506 28,200 -3,000 Descending Washington Center
20:40 39.3028 -74.5778 40° Northeast 426 490 25,500 -2,520 Descending Washington Center
20:41 39.3833 -74.4906 40° Northeast 396 456 23,200 -2,460 Descending Washington Center
20:42 39.4428 -74.3903 52° Northeast 377 434 20,600 -1,860 Descending Washington Center
20:43 39.3939 -74.3053 127° Southeast 265 305 19,500 -840 Descending Washington Center
20:44 39.3275 -74.3225 191° South 165 190 19,000 -240 Descending Washington Center
20:45 39.2925 -74.4031 241° Southwest 153 176 19,000  Level New York Center
20:46 39.3733 -74.4181 352° North 145 167 19,000  Level New York Center
20:47 39.4692 -74.3531 28° Northeast 272 313 19,000  Level New York Center
20:48 39.5608 -74.2875 29° Northeast 325 374 19,000  Level New York Center
20:49 39.6403 -74.2161 35° Northeast 373 429 19,000 -660 Level New York Center
20:50 39.7258 -74.1367 36° Northeast 379 436 17,700 -2,100 Descending New York Center
20:51 39.8178 -74.0519 35° Northeast 379 436 14,900 -2,580 Descending New York Center
20:52 39.8992 -73.9744 36° Northeast 367 422 12,600 -1,980 Descending New York Center
20:53 39.9675 -73.9128 35° Northeast 342 394 11,000 -840 Descending New York Center
20:54 40.0400 -73.8564 31° Northeast 318 366 11,000 -300 Level New York Center
20:55 40.1167 -73.7944 32° Northeast 296 341 10,500 -660 Descending New York Center
20:55 40.1333 -73.7667 52° Northeast 290 334 10,200 -1,200 Descending New York TRACON
20:57 40.2578 -73.7356 11° North 270 311 8,100 -1,560 Descending New York Center
20:58 40.2833 -73.7500 337° Northwest 283 326 7,000 -1,680 Descending New York TRACON
20:59 40.3333 -73.8333 308° West 254 292 5,800 -1,200 Descending New York TRACON
21:00 40.3667 -73.9000 303° West 209 241 4,600 -1,200 Descending New York TRACON
21:00 40.3842 -73.9261 311° West 221 254 3,900 -1,500 Descending New York Center
21:01 40.4000 -73.9500 311° West 208 239 3,100 -600 Descending New York TRACON
21:02 40.4500 -73.9833 333° Northwest 197 227 3,000 -60 Descending New York TRACON
21:03 40.5000 -73.9833 360° North 210 242 3,000  Level New York TRACON
21:04 40.5500 -74.0000 346° North 202 232 3,000  Level New York TRACON
21:05 40.6167 -74.0167 349° North 212 244 3,000  Level New York TRACON
21:05 40.6667 -74.0000 14° North 212 244 3,000 -60 Level New York TRACON
21:06 40.7167 -73.9667 27° Northeast 229 264 2,900 -120 Descending New York TRACON